Terminal Aerodrome Forecast
Issued by NWS

Home | Current Version | Previous Version | Text Only | Print | Product List | Glossary On
Versions: 1 2 3 4 5 6 7 8 9 10 11 12 13
000
FTUS46 KLOX 311700
TAFWJF
TAF
KWJF 311722Z 3118/0118 05004KT P6SM SCT250
     FM312100 05015G22KT P6SM SCT250
     FM010200 27007KT P6SM SKC
     FM010500 VRB03KT P6SM SKC=

USA.gov is the U.S. government's official web portal to all federal, state and local government web resources and services.